Time;durP1;ratioP1;P1;durP2;ratioP2;P2;SDS_P1;SDS_P2;PMS_P1;PMS_P2;Temp;Humidity;BMP_temperature;BMP_pressure;BME280_temperature;BME280_humidity;BME280_pressure;Samples;Min_cycle;Max_cycle;Signal;HPM_P1;HPM_P2
2022/10/21 00:00:37;;;;;;;5.78;3.00;;;10.90;99.90;;;;;;5031478;28;20030;-88
2022/10/21 00:03:03;;;;;;;6.22;3.55;;;10.80;99.90;;;;;;5024724;28;20042;-87
2022/10/21 00:05:28;;;;;;;6.05;3.00;;;10.90;99.90;;;;;;4993864;28;20125;-89
2022/10/21 00:07:54;;;;;;;7.00;3.63;;;11.60;99.90;;;;;;5014750;28;20117;-88
2022/10/21 00:10:20;;;;;;;6.78;2.72;;;10.80;99.90;;;;;;5014333;28;20126;-87
2022/10/21 00:12:45;;;;;;;7.50;3.60;;;11.20;99.90;;;;;;5006686;28;20081;-90
2022/10/21 00:15:11;;;;;;;7.60;2.60;;;11.10;99.90;;;;;;5001727;28;20084;-89
2022/10/21 00:17:40;;;;;;;4.93;2.90;;;11.20;99.90;;;;;;5027306;28;20045;-87
2022/10/21 00:20:08;;;;;;;6.18;3.20;;;10.60;99.90;;;;;;5015015;28;20068;-89
2022/10/21 00:22:34;;;;;;;4.50;2.78;;;10.60;99.90;;;;;;5031555;28;20053;-88
2022/10/21 00:25:00;;;;;;;6.20;3.08;;;11.50;99.90;;;;;;5010381;28;20045;-89
2022/10/21 00:27:25;;;;;;;4.85;2.58;;;10.60;99.90;;;;;;5026465;28;20072;-88
2022/10/21 00:29:51;;;;;;;5.03;2.67;;;11.20;99.90;;;;;;5031055;28;20448;-88
2022/10/21 00:32:17;;;;;;;5.80;3.13;;;10.60;99.90;;;;;;5027808;28;20061;-89
2022/10/21 00:34:43;;;;;;;5.60;2.85;;;10.60;99.90;;;;;;5025570;28;20407;-88
2022/10/21 00:37:11;;;;;;;5.28;3.17;;;10.60;99.90;;;;;;5023924;28;20122;-88
2022/10/21 00:39:37;;;;;;;5.32;2.45;;;11.60;99.90;;;;;;5014812;28;20076;-89
2022/10/21 00:42:05;;;;;;;5.32;2.70;;;10.60;99.90;;;;;;5022091;28;20045;-88
2022/10/21 00:44:31;;;;;;;5.70;3.10;;;10.60;99.90;;;;;;5006902;28;20124;-87
2022/10/21 00:47:00;;;;;;;6.85;3.22;;;11.00;99.90;;;;;;5013545;28;20146;-88
2022/10/21 00:49:37;;;;;;;6.55;3.60;;;11.60;99.90;;;;;;5022444;28;20048;-89
2022/10/21 00:52:06;;;;;;;4.93;3.10;;;10.50;99.90;;;;;;5024124;28;20050;-89
2022/10/21 00:54:33;;;;;;;4.50;2.70;;;10.50;99.90;;;;;;5003679;28;20355;-90
2022/10/21 00:56:59;;;;;;;6.25;3.00;;;10.40;99.90;;;;;;5014494;28;20049;-87
2022/10/21 00:59:30;;;;;;;4.35;2.45;;;9.60;99.90;;;;;;5006415;28;20033;-89
2022/10/21 01:01:56;;;;;;;5.57;3.50;;;10.40;99.90;;;;;;5005613;28;20090;-89
2022/10/21 01:04:22;;;;;;;5.05;2.92;;;10.40;99.90;;;;;;5014821;28;20049;-91
2022/10/21 01:06:49;;;;;;;4.95;2.95;;;10.90;99.90;;;;;;5007407;28;20084;-89
2022/10/21 01:09:16;;;;;;;5.40;3.10;;;10.90;99.90;;;;;;5014899;28;20064;-88
2022/10/21 01:11:45;;;;;;;5.68;3.20;;;10.40;99.90;;;;;;5011761;28;20050;-87
2022/10/21 01:14:16;;;;;;;6.63;3.05;;;11.30;99.90;;;;;;5025942;28;20049;-87
2022/10/21 01:16:52;;;;;;;5.22;3.05;;;10.40;99.90;;;;;;5030370;28;20048;-89
2022/10/21 01:19:31;;;;;;;5.15;2.95;;;9.90;99.90;;;;;;5032128;28;20049;-87
2022/10/21 01:22:27;;;;;;;5.82;2.80;;;10.40;99.90;;;;;;5024714;28;20375;-87
2022/10/21 01:25:12;;;;;;;5.95;3.30;;;10.40;99.90;;;;;;4983716;28;20050;-86
2022/10/21 01:27:47;;;;;;;4.88;3.00;;;10.30;99.90;;;;;;5020821;28;20176;-87
2022/10/21 01:30:16;;;;;;;4.25;2.85;;;11.40;99.90;;;;;;4998739;28;20117;-86
2022/10/21 01:33:24;;;;;;;10.70;5.10;;;10.40;99.90;;;;;;5014230;28;20046;-86
2022/10/21 01:36:09;;;;;;;5.22;2.63;;;10.30;99.90;;;;;;5031698;28;20041;-88
2022/10/21 01:46:02;;;;;;;5.55;2.75;;;10.30;99.90;;;;;;5029921;28;20084;-88
2022/10/21 01:48:32;;;;;;;6.35;3.10;;;10.30;99.90;;;;;;5009462;28;20132;-87
2022/10/21 01:51:01;;;;;;;6.07;2.83;;;11.10;99.90;;;;;;5028708;28;20143;-87
2022/10/21 01:53:30;;;;;;;4.10;2.40;;;10.80;99.90;;;;;;5028963;28;20050;-87
2022/10/21 01:56:02;;;;;;;4.32;2.60;;;10.10;99.90;;;;;;5020859;28;20040;-87
2022/10/21 01:58:33;;;;;;;5.20;2.83;;;10.20;99.90;;;;;;5033756;28;20504;-88
2022/10/21 02:01:02;;;;;;;8.43;3.88;;;10.10;99.90;;;;;;5037132;28;20037;-85
2022/10/21 02:03:36;;;;;;;5.80;2.80;;;10.10;99.90;;;;;;5019957;28;20072;-86
2022/10/21 02:06:02;;;;;;;5.13;2.45;;;10.10;99.90;;;;;;5022511;28;20116;-85
2022/10/21 02:08:28;;;;;;;4.47;2.33;;;10.00;99.90;;;;;;5019638;28;20042;-85
2022/10/21 02:10:57;;;;;;;4.68;2.80;;;10.10;99.90;;;;;;5032584;28;20121;-86
2022/10/21 02:13:28;;;;;;;5.03;3.08;;;10.10;99.90;;;;;;5030060;28;20041;-87
2022/10/21 02:15:59;;;;;;;4.30;2.63;;;10.30;99.90;;;;;;5023393;28;20057;-86
2022/10/21 02:18:25;;;;;;;5.25;3.03;;;10.40;99.90;;;;;;5013001;28;20391;-87
2022/10/21 02:21:01;;;;;;;5.28;2.85;;;10.00;99.90;;;;;;5000400;28;20042;-85
2022/10/21 02:23:41;;;;;;;3.58;2.63;;;10.50;99.90;;;;;;4984753;28;20100;-87
2022/10/21 02:26:07;;;;;;;5.13;2.38;;;10.10;99.90;;;;;;5026016;28;20049;-86
2022/10/21 02:28:33;;;;;;;4.40;2.55;;;10.20;99.90;;;;;;5016549;28;20076;-86
2022/10/21 02:31:35;;;;;;;4.35;2.25;;;10.10;99.90;;;;;;5016124;28;20394;-87
2022/10/21 02:34:20;;;;;;;5.47;2.63;;;10.20;99.90;;;;;;5031009;28;20040;-86
2022/10/21 02:37:05;;;;;;;6.97;3.08;;;10.20;99.90;;;;;;4985189;28;20506;-87
2022/10/21 02:39:55;;;;;;;5.18;2.80;;;10.20;99.90;;;;;;4990400;28;20176;-87
2022/10/21 02:42:32;;;;;;;5.47;2.53;;;10.30;99.90;;;;;;5006009;28;20053;-86
2022/10/21 02:45:00;;;;;;;4.78;2.53;;;10.40;99.90;;;;;;5004182;28;20042;-86
2022/10/21 02:47:28;;;;;;;5.85;2.58;;;10.60;99.90;;;;;;5016105;28;20571;-86
2022/10/21 02:49:53;;;;;;;4.15;2.20;;;10.40;99.90;;;;;;5008560;28;20053;-86
2022/10/21 02:52:19;;;;;;;4.65;2.35;;;10.50;99.90;;;;;;5024812;28;20045;-86
2022/10/21 02:54:45;;;;;;;3.65;1.73;;;10.80;99.90;;;;;;4993704;28;20049;-86
2022/10/21 02:57:10;;;;;;;3.45;1.85;;;10.60;99.90;;;;;;5001835;28;20046;-88
2022/10/21 02:59:36;;;;;;;8.55;2.15;;;10.90;99.90;;;;;;5007684;28;20064;-87
2022/10/21 03:02:02;;;;;;;3.60;1.70;;;10.80;99.90;;;;;;5012585;28;20045;-87
2022/10/21 03:04:28;;;;;;;4.55;2.20;;;11.60;99.90;;;;;;5030719;28;20041;-87
2022/10/21 03:06:53;;;;;;;3.83;2.00;;;10.90;99.90;;;;;;5015950;28;20057;-87
2022/10/21 03:09:19;;;;;;;3.33;2.17;;;11.00;99.90;;;;;;5015895;28;20034;-87
2022/10/21 03:11:45;;;;;;;3.63;1.50;;;11.10;99.90;;;;;;5006582;28;20104;-86
2022/10/21 03:14:11;;;;;;;6.45;2.33;;;11.10;99.90;;;;;;5015584;28;20572;-88
2022/10/21 03:16:37;;;;;;;3.95;1.90;;;11.10;99.90;;;;;;5032401;28;20052;-87
2022/10/21 03:19:03;;;;;;;6.05;3.00;;;11.10;99.90;;;;;;5011276;28;20037;-88
2022/10/21 03:21:30;;;;;;;5.70;3.17;;;11.20;99.90;;;;;;5028661;28;20394;-88
2022/10/21 03:24:00;;;;;;;4.13;2.00;;;11.60;99.90;;;;;;5032127;28;20131;-88
2022/10/21 03:26:26;;;;;;;5.20;1.98;;;11.30;99.90;;;;;;5034282;28;20037;-88
2022/10/21 03:28:52;;;;;;;3.40;1.98;;;11.20;99.90;;;;;;5035259;28;20077;-88
2022/10/21 03:31:18;;;;;;;4.82;2.25;;;11.30;99.90;;;;;;5028960;28;20125;-88
2022/10/21 03:33:43;;;;;;;4.00;2.03;;;11.30;99.90;;;;;;5011811;28;20053;-87
2022/10/21 03:36:09;;;;;;;4.80;2.80;;;11.40;99.90;;;;;;5031593;28;20061;-87
2022/10/21 03:38:35;;;;;;;4.70;1.85;;;11.30;99.90;;;;;;5031944;28;20041;-88
2022/10/21 03:41:01;;;;;;;3.63;1.85;;;11.40;99.90;;;;;;5032100;28;20045;-89
2022/10/21 03:43:26;;;;;;;3.55;1.85;;;11.30;99.90;;;;;;5015540;28;20045;-88
2022/10/21 03:45:52;;;;;;;4.10;2.10;;;11.40;99.90;;;;;;5015871;28;20049;-87
2022/10/21 03:48:18;;;;;;;4.03;1.80;;;12.30;99.90;;;;;;5024057;28;20533;-88
2022/10/21 03:50:43;;;;;;;3.85;2.53;;;11.40;99.90;;;;;;5027001;28;20120;-88
2022/10/21 03:53:09;;;;;;;4.80;2.40;;;11.40;99.90;;;;;;5011970;28;20081;-87
2022/10/21 03:55:35;;;;;;;4.47;2.22;;;11.80;99.90;;;;;;5024781;28;20517;-88
2022/10/21 03:58:00;;;;;;;4.65;2.58;;;10.80;99.90;;;;;;5014946;28;20053;-87
2022/10/21 04:00:26;;;;;;;5.28;2.72;;;11.90;99.90;;;;;;5003164;28;20049;-87
2022/10/21 04:02:52;;;;;;;6.25;2.60;;;11.40;99.90;;;;;;5024805;28;20049;-87
2022/10/21 04:05:18;;;;;;;3.47;2.22;;;11.60;99.90;;;;;;5014878;28;20041;-87
2022/10/21 04:07:44;;;;;;;3.20;1.98;;;11.40;99.90;;;;;;5024309;28;20049;-88
2022/10/21 04:10:10;;;;;;;4.60;2.50;;;11.40;99.90;;;;;;5007246;28;20120;-88
2022/10/21 04:12:36;;;;;;;4.45;2.63;;;11.40;99.90;;;;;;5012640;28;20061;-88
2022/10/21 04:15:03;;;;;;;4.07;1.83;;;11.40;99.90;;;;;;5002529;28;20053;-87
2022/10/21 04:17:28;;;;;;;3.92;2.20;;;11.40;99.90;;;;;;5012056;28;20041;-87
2022/10/21 04:19:54;;;;;;;3.33;2.20;;;11.40;99.90;;;;;;5014634;28;20041;-88
2022/10/21 04:22:20;;;;;;;4.65;2.58;;;12.30;99.90;;;;;;5032546;28;20079;-87
2022/10/21 04:24:45;;;;;;;5.47;2.22;;;11.40;99.90;;;;;;5023192;28;20045;-88
2022/10/21 04:27:11;;;;;;;3.75;2.33;;;11.50;99.90;;;;;;5030735;28;20052;-87
2022/10/21 04:29:37;;;;;;;4.65;2.55;;;11.60;99.90;;;;;;5014740;28;20040;-88
2022/10/21 04:32:03;;;;;;;5.22;2.58;;;11.60;99.90;;;;;;5028206;28;20449;-88
2022/10/21 04:34:28;;;;;;;4.60;2.10;;;11.70;99.90;;;;;;5009579;28;20046;-87
2022/10/21 04:36:54;;;;;;;4.25;2.40;;;11.50;99.90;;;;;;5031224;28;20489;-87
2022/10/21 04:39:20;;;;;;;3.83;2.10;;;11.50;99.90;;;;;;5014913;28;20037;-87
2022/10/21 04:41:48;;;;;;;3.78;2.10;;;11.50;99.90;;;;;;5031245;28;20033;-87
2022/10/21 04:44:14;;;;;;;5.50;2.65;;;11.50;99.90;;;;;;5014551;28;20552;-89
2022/10/21 04:46:40;;;;;;;6.13;2.88;;;11.50;99.90;;;;;;5009977;28;20065;-88
2022/10/21 04:49:05;;;;;;;5.60;3.10;;;11.60;99.90;;;;;;5006237;28;20041;-87
2022/10/21 04:51:31;;;;;;;4.90;2.55;;;11.60;99.90;;;;;;5014452;28;20041;-89
2022/10/21 04:53:57;;;;;;;3.92;2.40;;;11.90;99.90;;;;;;5031326;28;20045;-87
2022/10/21 04:56:23;;;;;;;5.80;2.85;;;11.60;99.90;;;;;;5006235;28;20119;-86
2022/10/21 04:58:48;;;;;;;5.88;2.63;;;11.60;99.90;;;;;;5031802;28;20061;-87
2022/10/21 05:01:14;;;;;;;5.25;2.47;;;11.60;99.90;;;;;;5030152;28;20073;-87
2022/10/21 05:03:40;;;;;;;5.70;2.42;;;11.70;99.90;;;;;;5014546;28;20077;-86
2022/10/21 05:06:06;;;;;;;4.35;2.45;;;11.70;99.90;;;;;;5024033;28;20042;-87
2022/10/21 05:08:31;;;;;;;3.70;1.75;;;11.70;99.90;;;;;;5031711;28;20886;-87
2022/10/21 05:10:59;;;;;;;3.58;1.95;;;11.70;99.90;;;;;;5006259;28;20441;-87
2022/10/21 05:13:25;;;;;;;4.63;2.10;;;11.90;99.90;;;;;;5023361;28;20504;-86
2022/10/21 05:15:50;;;;;;;4.10;1.88;;;11.80;99.90;;;;;;5031448;28;20063;-86
2022/10/21 05:18:16;;;;;;;3.90;2.47;;;11.70;99.90;;;;;;5017171;28;20124;-86
2022/10/21 05:20:42;;;;;;;3.67;1.90;;;11.80;99.90;;;;;;5000838;28;20120;-86
2022/10/21 05:23:07;;;;;;;4.00;1.70;;;11.80;99.90;;;;;;4998648;28;20506;-90
2022/10/21 05:25:33;;;;;;;6.65;1.70;;;11.90;99.90;;;;;;5018519;28;20049;-86
2022/10/21 05:27:59;;;;;;;6.13;3.03;;;11.90;99.90;;;;;;5012826;28;20398;-88
2022/10/21 05:30:24;;;;;;;5.78;2.38;;;12.80;99.90;;;;;;5015261;28;20128;-88
2022/10/21 05:32:50;;;;;;;5.85;2.50;;;12.00;99.90;;;;;;5036484;28;20037;-86
2022/10/21 05:35:16;;;;;;;4.00;2.30;;;11.90;99.90;;;;;;5035652;28;20080;-87
2022/10/21 05:37:42;;;;;;;6.65;3.28;;;12.00;99.90;;;;;;5017383;28;20041;-86
2022/10/21 05:40:08;;;;;;;6.10;3.05;;;11.90;99.90;;;;;;5035250;28;20037;-87
2022/10/21 05:42:33;;;;;;;5.85;3.28;;;12.00;99.90;;;;;;5033998;28;20433;-87
2022/10/21 05:44:59;;;;;;;5.78;2.92;;;12.00;99.90;;;;;;5013164;28;20107;-87
2022/10/21 05:47:25;;;;;;;6.43;2.75;;;12.30;99.90;;;;;;4997609;28;20045;-88
2022/10/21 05:49:51;;;;;;;5.20;2.38;;;12.10;99.90;;;;;;5024365;28;20042;-89
2022/10/21 05:52:17;;;;;;;5.88;2.50;;;11.90;99.90;;;;;;5029489;28;20061;-87
2022/10/21 05:54:54;;;;;;;5.03;2.20;;;12.10;99.90;;;;;;5027478;28;20042;-92
2022/10/21 05:57:41;;;;;;;3.17;1.67;;;12.00;99.90;;;;;;5000850;23;20070;-89
2022/10/21 06:00:15;;;;;;;3.88;1.95;;;12.10;99.90;;;;;;4967942;28;20051;-90
2022/10/21 06:03:24;;;;;;;4.63;2.65;;;12.00;99.90;;;;;;5002916;23;20058;-90
2022/10/21 06:05:50;;;;;;;4.45;2.40;;;12.00;99.90;;;;;;4993597;28;20092;-91
2022/10/21 06:08:21;;;;;;;4.95;1.85;;;12.10;99.90;;;;;;4993967;28;20053;-91
2022/10/21 06:10:47;;;;;;;7.32;2.63;;;12.00;99.90;;;;;;4989524;28;20039;-89
2022/10/21 06:13:12;;;;;;;6.75;3.03;;;12.00;99.90;;;;;;4993934;28;20065;-87
2022/10/21 06:15:38;;;;;;;7.03;3.10;;;12.10;99.90;;;;;;4993559;28;20054;-87
2022/10/21 06:18:04;;;;;;;5.18;3.03;;;12.00;99.90;;;;;;4993551;28;20043;-87
2022/10/21 06:20:30;;;;;;;5.65;3.10;;;12.30;99.90;;;;;;4995359;28;20057;-87
2022/10/21 06:23:01;;;;;;;6.88;2.95;;;12.10;99.90;;;;;;4992439;28;20042;-88
2022/10/21 06:25:32;;;;;;;5.78;2.75;;;12.00;99.90;;;;;;4993312;28;20046;-85
2022/10/21 06:27:57;;;;;;;4.20;2.08;;;12.00;99.90;;;;;;4992304;28;20054;-87
2022/10/21 06:30:23;;;;;;;5.75;2.67;;;12.00;99.90;;;;;;4993624;28;20399;-86
2022/10/21 06:32:50;;;;;;;5.68;2.65;;;12.10;99.90;;;;;;4993814;28;20050;-87
2022/10/21 06:35:15;;;;;;;5.65;2.63;;;12.10;99.90;;;;;;4991985;28;20046;-88
2022/10/21 06:37:41;;;;;;;5.70;2.28;;;11.40;99.90;;;;;;4994226;28;20048;-87
2022/10/21 06:40:08;;;;;;;5.55;2.60;;;12.10;99.90;;;;;;4997211;28;20046;-89
2022/10/21 06:42:33;;;;;;;5.18;2.80;;;12.10;99.90;;;;;;4997379;28;20047;-86
2022/10/21 06:44:59;;;;;;;5.97;2.70;;;12.10;99.90;;;;;;5002670;28;20050;-89
2022/10/21 06:47:28;;;;;;;4.20;1.92;;;12.10;99.90;;;;;;5007110;28;20041;-91
2022/10/21 06:50:04;;;;;;;5.85;2.78;;;12.10;99.90;;;;;;5007330;28;20043;-90
2022/10/21 06:53:01;;;;;;;6.47;2.90;;;12.10;99.90;;;;;;4995972;28;20076;-90
2022/10/21 06:55:27;;;;;;;5.95;3.00;;;11.80;99.90;;;;;;4994583;28;20133;-87
2022/10/21 06:57:55;;;;;;;5.05;2.60;;;12.10;99.90;;;;;;4990032;28;20130;-91
2022/10/21 07:00:27;;;;;;;6.32;2.50;;;12.20;99.90;;;;;;4976107;28;20125;-88
2022/10/21 07:02:53;;;;;;;4.50;2.30;;;12.20;99.90;;;;;;4992992;28;20041;-87
2022/10/21 07:05:18;;;;;;;5.68;2.80;;;12.30;99.90;;;;;;4993928;28;20062;-87
2022/10/21 07:07:44;;;;;;;4.13;2.25;;;12.20;99.90;;;;;;4993718;28;20042;-87
2022/10/21 07:10:10;;;;;;;4.95;3.00;;;12.20;99.90;;;;;;4993484;28;20053;-88
2022/10/21 07:12:36;;;;;;;5.85;2.70;;;12.30;99.90;;;;;;4994163;28;20069;-87
2022/10/21 07:15:01;;;;;;;5.78;2.88;;;12.30;99.90;;;;;;4993881;28;20446;-88
2022/10/21 07:17:30;;;;;;;7.35;2.83;;;13.20;99.90;;;;;;4993483;28;20133;-87
2022/10/21 07:19:59;;;;;;;6.18;2.67;;;12.30;99.90;;;;;;4993666;28;20199;-87
2022/10/21 07:22:27;;;;;;;7.57;3.50;;;12.80;99.90;;;;;;4993525;28;20124;-87
2022/10/21 07:24:52;;;;;;;6.07;3.40;;;12.30;99.90;;;;;;4994564;28;20069;-88
2022/10/21 07:27:18;;;;;;;6.80;3.33;;;12.30;99.90;;;;;;4993336;28;20046;-88
2022/10/21 07:29:44;;;;;;;6.40;2.92;;;12.30;99.90;;;;;;4994683;28;20050;-88
2022/10/21 07:32:10;;;;;;;6.50;3.45;;;12.30;99.90;;;;;;4993652;28;20480;-88
2022/10/21 07:34:36;;;;;;;7.57;3.30;;;12.30;99.90;;;;;;4994697;28;20046;-88
2022/10/21 07:37:01;;;;;;;8.25;3.42;;;12.30;99.90;;;;;;4993304;28;20502;-87
2022/10/21 07:39:27;;;;;;;5.35;3.22;;;12.40;99.90;;;;;;4993103;28;20061;-88
2022/10/21 07:41:56;;;;;;;6.90;3.72;;;12.30;99.90;;;;;;4993641;28;20042;-88
2022/10/21 07:44:24;;;;;;;7.68;3.83;;;12.30;99.90;;;;;;4994421;28;20046;-87
2022/10/21 07:46:50;;;;;;;6.78;3.78;;;12.50;99.90;;;;;;4993118;28;20117;-88
2022/10/21 07:49:17;;;;;;;7.95;3.38;;;12.30;99.90;;;;;;4994259;28;20042;-87
2022/10/21 07:51:44;;;;;;;5.65;2.85;;;12.40;99.90;;;;;;4994180;28;20408;-88
2022/10/21 07:54:14;;;;;;;5.30;3.15;;;12.20;99.90;;;;;;4993377;28;20458;-88
2022/10/21 07:56:46;;;;;;;5.70;3.22;;;12.50;99.90;;;;;;4994416;28;20054;-89
2022/10/21 07:59:14;;;;;;;5.05;2.88;;;12.20;99.90;;;;;;4994402;28;20053;-89
2022/10/21 08:01:43;;;;;;;6.32;3.13;;;12.20;99.90;;;;;;4994144;28;20053;-88
2022/10/21 08:04:10;;;;;;;6.45;2.92;;;12.50;99.90;;;;;;4997251;28;20054;-86
2022/10/21 08:06:37;;;;;;;7.50;3.38;;;12.20;99.90;;;;;;4996308;28;20097;-87
2022/10/21 08:09:03;;;;;;;5.72;3.38;;;12.30;99.90;;;;;;4997817;28;20068;-86
2022/10/21 08:11:31;;;;;;;8.18;3.70;;;12.30;99.90;;;;;;4992737;28;20050;-86
2022/10/21 08:13:57;;;;;;;5.13;2.50;;;12.90;99.90;;;;;;4993051;28;20403;-86
2022/10/21 08:16:24;;;;;;;6.78;3.13;;;12.30;99.90;;;;;;4992423;28;20102;-87
2022/10/21 08:18:50;;;;;;;5.57;3.38;;;12.30;99.90;;;;;;4992896;28;20042;-86
2022/10/21 08:21:15;;;;;;;4.05;2.45;;;12.20;99.90;;;;;;4992691;28;20104;-87
2022/10/21 08:23:42;;;;;;;4.80;2.78;;;12.80;99.90;;;;;;4993805;28;20046;-86
2022/10/21 08:26:12;;;;;;;4.53;2.60;;;12.20;99.90;;;;;;4992656;28;20062;-87
2022/10/21 08:28:38;;;;;;;6.97;3.42;;;12.80;99.90;;;;;;4992376;28;20038;-86
2022/10/21 08:31:16;;;;;;;4.47;2.33;;;12.20;99.90;;;;;;4993557;28;20100;-86
2022/10/21 08:33:42;;;;;;;6.70;2.95;;;12.40;99.90;;;;;;4992277;28;20132;-86
2022/10/21 08:36:11;;;;;;;8.13;2.72;;;12.40;99.90;;;;;;4993587;28;20513;-87
2022/10/21 08:38:37;;;;;;;4.85;2.42;;;12.40;99.90;;;;;;4993460;28;20500;-88
2022/10/21 08:41:17;;;;;;;4.63;2.60;;;12.50;99.90;;;;;;4992195;28;20132;-86
2022/10/21 08:43:43;;;;;;;5.63;2.58;;;12.60;99.90;;;;;;4993443;28;20042;-86
2022/10/21 08:46:28;;;;;;;5.28;2.28;;;12.80;99.90;;;;;;4993503;28;20050;-86
2022/10/21 08:49:22;;;;;;;4.50;2.53;;;12.70;99.90;;;;;;4992028;28;20042;-86
2022/10/21 08:52:06;;;;;;;3.50;2.03;;;12.90;99.90;;;;;;4994416;28;20053;-86
2022/10/21 08:54:50;;;;;;;5.07;2.55;;;12.90;99.90;;;;;;4997414;28;20050;-86
2022/10/21 08:57:16;;;;;;;4.63;2.00;;;13.00;99.90;;;;;;4996169;28;20114;-86
2022/10/21 08:59:42;;;;;;;4.82;2.42;;;13.10;99.90;;;;;;4996183;28;20054;-86
2022/10/21 09:02:22;;;;;;;4.20;2.28;;;13.20;99.90;;;;;;4996294;28;20050;-86
2022/10/21 09:04:57;;;;;;;5.22;2.33;;;13.30;99.90;;;;;;4995839;28;20112;-86
2022/10/21 09:07:29;;;;;;;6.60;2.42;;;13.40;99.90;;;;;;4996113;28;20073;-86
2022/10/21 09:10:00;;;;;;;5.53;2.88;;;13.50;99.90;;;;;;4996078;28;20073;-86
2022/10/21 09:12:39;;;;;;;4.85;2.83;;;13.60;99.90;;;;;;4997246;28;20522;-87
2022/10/21 09:15:34;;;;;;;4.05;2.28;;;13.70;99.90;;;;;;4995964;28;20062;-86
2022/10/21 09:18:08;;;;;;;4.53;2.38;;;13.80;99.90;;;;;;4978442;28;20058;-86
2022/10/21 09:20:44;;;;;;;4.68;2.58;;;13.80;99.90;;;;;;4978644;28;20050;-86
2022/10/21 09:23:10;;;;;;;4.28;2.25;;;13.90;99.90;;;;;;4994930;28;20055;-86
2022/10/21 09:25:39;;;;;;;5.32;2.70;;;14.00;99.90;;;;;;4978453;28;20046;-86
2022/10/21 09:28:15;;;;;;;5.28;2.63;;;14.10;99.90;;;;;;4978382;28;20408;-86
2022/10/21 09:30:42;;;;;;;4.38;2.55;;;14.10;99.90;;;;;;4978323;28;20079;-86
2022/10/21 09:33:20;;;;;;;4.78;2.35;;;14.20;99.90;;;;;;4994458;28;20050;-86
2022/10/21 09:35:50;;;;;;;4.10;2.25;;;15.00;99.90;;;;;;4994592;28;20431;-89
2022/10/21 09:38:25;;;;;;;3.05;1.70;;;14.40;99.90;;;;;;4981175;28;20053;-87
2022/10/21 09:40:57;;;;;;;3.00;1.73;;;14.50;99.90;;;;;;5014426;28;20049;-90
2022/10/21 09:43:25;;;;;;;2.92;2.08;;;14.60;99.90;;;;;;5002204;28;20548;-93
2022/10/21 09:45:52;;;;;;;4.18;2.28;;;14.70;99.90;;;;;;5014736;28;20038;-88
2022/10/21 09:48:17;;;;;;;5.75;2.00;;;14.80;99.90;;;;;;4982298;28;20053;-90
2022/10/21 09:51:03;;;;;;;4.88;2.22;;;14.80;99.90;;;;;;5009634;28;20498;-88
2022/10/21 09:53:37;;;;;;;5.03;2.33;;;14.90;99.90;;;;;;4994080;28;20049;-91
2022/10/21 09:56:10;;;;;;;4.47;2.28;;;15.00;99.90;;;;;;4994301;28;20038;-91
2022/10/21 09:58:36;;;;;;;4.20;2.50;;;15.00;99.90;;;;;;4995587;28;20042;-89
2022/10/21 10:01:03;;;;;;;4.05;2.28;;;15.20;99.90;;;;;;4995768;28;20068;-90
2022/10/21 10:03:35;;;;;;;7.38;2.50;;;15.10;99.90;;;;;;4993713;28;20046;-92
2022/10/21 10:06:03;;;;;;;4.80;2.72;;;15.20;99.90;;;;;;4992995;28;20050;-88
2022/10/21 10:08:30;;;;;;;7.60;3.40;;;15.30;99.90;;;;;;4987630;28;20050;-89
2022/10/21 10:11:22;;;;;;;4.13;2.28;;;15.40;99.90;;;;;;4993391;28;20049;-87
2022/10/21 10:13:51;;;;;;;4.13;2.28;;;15.50;99.90;;;;;;4989589;28;20056;-88
2022/10/21 10:16:29;;;;;;;5.10;2.70;;;15.60;99.90;;;;;;4996378;28;20049;-91
2022/10/21 10:19:16;;;;;;;6.20;2.83;;;15.70;99.90;;;;;;4994769;28;20550;-88
2022/10/21 10:21:42;;;;;;;6.65;3.15;;;15.80;99.90;;;;;;4988247;28;20396;-90
2022/10/21 10:24:20;;;;;;;3.97;2.30;;;15.90;99.90;;;;;;4995961;28;20054;-87
2022/10/21 10:26:46;;;;;;;8.25;3.95;;;16.00;99.90;;;;;;4989311;28;20053;-87
2022/10/21 10:29:15;;;;;;;6.55;4.53;;;16.10;99.90;;;;;;4996094;28;20057;-88
2022/10/21 10:31:51;;;;;;;6.55;3.45;;;16.20;99.90;;;;;;4996725;28;20109;-90
2022/10/21 10:34:22;;;;;;;7.72;3.85;;;16.20;99.90;;;;;;4995233;28;20038;-88
2022/10/21 10:36:49;;;;;;;4.78;2.55;;;16.40;99.90;;;;;;4996653;28;20461;-88
2022/10/21 10:39:29;;;;;;;7.07;3.15;;;16.30;99.90;;;;;;4996119;28;20061;-91
2022/10/21 10:45:35;;;;;;;9.00;4.50;;;16.50;99.90;;;;;;4996741;28;20040;-89
2022/10/21 10:48:05;;;;;;;7.03;3.25;;;16.60;99.90;;;;;;4999132;28;20062;-84
2022/10/21 10:50:41;;;;;;;7.07;2.78;;;16.60;99.90;;;;;;5009340;28;20064;-88
2022/10/21 10:53:31;;;;;;;7.63;3.88;;;16.70;99.90;;;;;;5012261;28;20035;-87
2022/10/21 10:56:13;;;;;;;5.05;2.10;;;16.80;99.90;;;;;;5015079;28;20061;-91
2022/10/21 10:59:00;;;;;;;4.80;2.25;;;16.90;99.90;;;;;;5015675;28;20070;-87
2022/10/21 11:01:37;;;;;;;4.80;1.70;;;16.90;99.90;;;;;;5017655;28;20098;-87
2022/10/21 11:04:31;;;;;;;4.38;2.33;;;16.90;99.90;;;;;;5010668;28;20090;-88
2022/10/21 11:07:07;;;;;;;7.40;3.17;;;16.90;99.90;;;;;;4988190;28;20102;-86
2022/10/21 11:09:33;;;;;;;4.50;2.38;;;17.00;99.90;;;;;;4974940;28;20062;-86
2022/10/21 11:12:06;;;;;;;5.80;2.50;;;17.00;99.90;;;;;;4967238;28;20061;-87
2022/10/21 11:14:42;;;;;;;4.70;2.83;;;16.80;99.90;;;;;;4963349;29;20031;-85
2022/10/21 11:17:11;;;;;;;4.63;2.75;;;17.00;99.90;;;;;;4969740;28;20252;-92
2022/10/21 11:19:55;;;;;;;6.20;2.65;;;17.00;99.90;;;;;;4938387;28;20057;-92
2022/10/21 11:22:57;;;;;;;5.85;3.45;;;17.00;99.90;;;;;;4939862;29;20075;-93
2022/10/21 11:25:32;;;;;;;5.22;3.03;;;17.10;99.90;;;;;;4956910;28;20055;-89
2022/10/21 11:28:25;;;;;;;4.78;3.10;;;17.10;99.90;;;;;;4936621;29;20051;-91
2022/10/21 11:30:58;;;;;;;4.32;2.40;;;17.10;99.90;;;;;;4960580;28;20055;-89
2022/10/21 11:33:34;;;;;;;5.22;2.78;;;17.20;99.90;;;;;;4954890;28;20043;-89
2022/10/21 11:36:04;;;;;;;5.93;2.97;;;17.20;99.90;;;;;;4944619;28;20130;-90
2022/10/21 11:38:39;;;;;;;5.88;3.20;;;17.30;99.90;;;;;;4963925;28;20039;-90
2022/10/21 11:41:08;;;;;;;4.97;2.70;;;17.30;99.90;;;;;;4961659;28;20046;-91
2022/10/21 11:43:59;;;;;;;4.30;1.83;;;17.50;99.90;;;;;;4971978;28;20101;-89
2022/10/21 11:46:28;;;;;;;2.95;2.00;;;17.10;99.90;;;;;;4986701;28;20046;-90
2022/10/21 11:49:33;;;;;;;4.63;2.80;;;17.40;99.90;;;;;;4992811;28;20426;-87
2022/10/21 11:52:13;;;;;;;3.80;2.00;;;17.40;99.90;;;;;;4990055;28;20084;-88
2022/10/21 11:54:57;;;;;;;5.78;2.88;;;17.50;99.90;;;;;;4992714;28;20447;-90
2022/10/21 11:58:03;;;;;;;5.22;1.92;;;17.50;99.90;;;;;;4988980;28;20042;-91
2022/10/21 12:00:42;;;;;;;3.63;1.92;;;17.60;99.90;;;;;;4969391;28;20495;-87
2022/10/21 12:03:34;;;;;;;5.60;1.70;;;17.60;99.90;;;;;;4992116;28;20054;-88
2022/10/21 12:06:12;;;;;;;2.33;1.25;;;17.60;99.90;;;;;;4993060;28;20089;-90
2022/10/21 12:08:53;;;;;;;2.38;1.30;;;17.70;99.90;;;;;;4987579;28;20145;-91
2022/10/21 12:11:38;;;;;;;2.55;1.30;;;17.70;99.90;;;;;;4993407;28;20050;-83
2022/10/21 12:14:28;;;;;;;4.35;1.73;;;17.70;99.90;;;;;;4992698;28;20088;-84
2022/10/21 12:16:56;;;;;;;5.43;1.73;;;17.70;99.90;;;;;;4992383;28;20038;-84
2022/10/21 12:19:24;;;;;;;5.75;1.88;;;17.70;99.90;;;;;;4991738;28;20137;-89
2022/10/21 12:21:50;;;;;;;5.22;1.35;;;17.90;99.90;;;;;;4991725;28;20042;-90
2022/10/21 12:24:43;;;;;;;2.90;1.38;;;17.70;99.90;;;;;;4991913;28;20050;-88
2022/10/21 12:27:53;;;;;;;4.55;1.77;;;17.70;99.90;;;;;;4986333;28;20111;-89
2022/10/21 12:30:39;;;;;;;3.35;1.40;;;17.70;99.90;;;;;;4961349;28;20500;-86
2022/10/21 12:33:13;;;;;;;3.88;1.75;;;17.60;99.90;;;;;;4962586;28;20039;-87
2022/10/21 12:35:46;;;;;;;3.28;1.52;;;17.60;99.90;;;;;;4943443;29;20046;-89
2022/10/21 12:38:23;;;;;;;5.45;2.20;;;17.60;99.90;;;;;;4944144;28;20055;-87
2022/10/21 12:41:10;;;;;;;4.05;1.50;;;17.60;99.90;;;;;;4962957;28;20058;-88
2022/10/21 12:43:38;;;;;;;4.13;1.77;;;17.60;99.90;;;;;;4951804;28;20075;-88
2022/10/21 12:46:09;;;;;;;4.95;1.95;;;17.60;99.90;;;;;;4952208;28;20102;-89
2022/10/21 12:48:47;;;;;;;7.35;2.30;;;17.60;99.90;;;;;;4937164;29;20093;-89
2022/10/21 12:51:21;;;;;;;3.95;2.00;;;17.60;99.90;;;;;;4936482;29;20411;-88
2022/10/21 12:54:01;;;;;;;4.10;1.50;;;17.60;99.90;;;;;;4952943;29;20051;-89
2022/10/21 12:56:44;;;;;;;2.95;1.60;;;17.60;99.90;;;;;;4951676;28;20510;-85
2022/10/21 12:59:32;;;;;;;3.67;1.67;;;17.50;99.90;;;;;;4943635;29;20047;-90
2022/10/21 13:02:04;;;;;;;2.95;1.20;;;17.50;99.90;;;;;;4937035;28;20047;-86
2022/10/21 13:04:32;;;;;;;3.25;1.45;;;17.50;99.90;;;;;;4951342;28;20059;-88
2022/10/21 13:07:22;;;;;;;4.03;1.70;;;17.60;99.90;;;;;;4980844;28;20043;-85
2022/10/21 13:09:51;;;;;;;3.47;1.52;;;17.50;99.90;;;;;;4970902;28;20643;-86
2022/10/21 13:12:22;;;;;;;4.47;1.80;;;17.50;99.90;;;;;;4949960;29;20050;-89
2022/10/21 13:14:52;;;;;;;2.97;1.30;;;17.50;99.90;;;;;;4949365;28;20679;-92
2022/10/21 13:17:21;;;;;;;5.28;1.70;;;17.50;99.90;;;;;;4950505;28;20047;-91
2022/10/21 13:20:09;;;;;;;2.22;1.33;;;17.50;99.90;;;;;;4945725;28;20051;-85